Time;durP1;ratioP1;P1;durP2;ratioP2;P2;SDS_P1;SDS_P2;PMS_P1;PMS_P2;Temp;Humidity;BMP_temperature;BMP_pressure;BME280_temperature;BME280_humidity;BME280_pressure;Samples;Min_cycle;Max_cycle;Signal;HPM_P1;HPM_P2
2021/11/10 00:00:51;;;;;;;15.30;12.53;;;2.50;99.90;;;;;;6151440;23;20602;-95
2021/11/10 00:03:21;;;;;;;14.83;13.43;;;2.60;99.90;;;;;;6151061;23;20577;-95
2021/11/10 00:05:54;;;;;;;12.90;11.87;;;2.70;99.90;;;;;;6148966;23;20583;-95
2021/11/10 00:08:21;;;;;;;13.00;11.70;;;2.40;99.90;;;;;;6150768;23;20586;-95
2021/11/10 00:10:48;;;;;;;14.23;12.90;;;2.90;99.90;;;;;;6150195;23;20636;-94
2021/11/10 00:13:19;;;;;;;26.50;24.13;;;4.30;99.90;;;;;;6148243;23;20573;-95
2021/11/10 00:15:51;;;;;;;18.77;17.03;;;3.40;99.90;;;;;;6148829;23;20577;-94
2021/11/10 00:18:23;;;;;;;18.60;16.60;;;3.50;99.90;;;;;;6149774;23;20567;-95
2021/11/10 00:20:51;;;;;;;14.93;13.43;;;2.70;99.90;;;;;;6148592;23;20614;-95
2021/11/10 00:23:21;;;;;;;15.47;13.87;;;2.70;99.90;;;;;;6149577;23;20568;-95
2021/11/10 00:25:51;;;;;;;15.20;13.80;;;2.60;99.90;;;;;;6149063;23;20561;-95
2021/11/10 00:28:18;;;;;;;16.37;12.70;;;3.90;99.90;;;;;;6149829;23;20565;-95
2021/11/10 00:30:49;;;;;;;14.87;13.37;;;2.70;99.90;;;;;;6149550;23;20633;-95
2021/11/10 00:33:16;;;;;;;12.80;11.60;;;2.70;99.90;;;;;;6147153;23;20576;-95
2021/11/10 00:35:44;;;;;;;15.73;13.90;;;2.60;99.90;;;;;;6147466;23;20610;-93
2021/11/10 00:38:11;;;;;;;14.77;13.00;;;2.80;99.90;;;;;;6147045;23;20589;-95
2021/11/10 00:40:39;;;;;;;13.80;12.40;;;2.60;99.90;;;;;;6146670;23;20602;-94
2021/11/10 00:43:07;;;;;;;15.57;13.93;;;2.30;99.90;;;;;;6149359;23;20593;-94
2021/11/10 00:45:35;;;;;;;13.87;12.50;;;2.80;99.90;;;;;;6150126;23;20574;-95
2021/11/10 00:48:10;;;;;;;15.33;13.37;;;2.60;99.90;;;;;;6150484;23;20560;-95
2021/11/10 00:50:38;;;;;;;13.00;11.60;;;2.40;99.90;;;;;;6149025;23;20612;-95
2021/11/10 00:53:06;;;;;;;13.90;12.70;;;2.40;99.90;;;;;;6149582;23;20590;-95
2021/11/10 00:55:34;;;;;;;13.80;12.50;;;3.70;99.90;;;;;;6148931;23;20579;-96
2021/11/10 00:58:01;;;;;;;15.43;12.50;;;2.40;99.90;;;;;;6148930;23;20912;-94
2021/11/10 01:00:28;;;;;;;13.23;11.80;;;2.20;99.90;;;;;;6149698;23;20638;-95
2021/11/10 01:02:56;;;;;;;15.50;13.60;;;3.50;99.90;;;;;;6149493;23;20629;-95
2021/11/10 01:05:24;;;;;;;15.30;13.90;;;2.40;99.90;;;;;;6147860;23;20598;-93
2021/11/10 01:07:52;;;;;;;14.53;13.03;;;3.70;99.90;;;;;;6148375;23;20602;-96
2021/11/10 01:10:26;;;;;;;18.03;12.17;;;3.30;99.90;;;;;;6147724;23;20705;-95
2021/11/10 01:12:53;;;;;;;13.23;11.97;;;2.80;99.90;;;;;;6148523;23;20554;-95
2021/11/10 01:15:21;;;;;;;13.23;11.93;;;2.90;99.90;;;;;;6149802;23;20567;-96
2021/11/10 01:17:48;;;;;;;16.57;12.50;;;2.00;99.90;;;;;;6148887;23;20816;-94
2021/11/10 01:20:15;;;;;;;13.83;12.50;;;2.00;99.90;;;;;;6146883;23;20618;-93
2021/11/10 01:22:44;;;;;;;14.60;13.40;;;2.30;99.90;;;;;;6130261;23;20575;-95
2021/11/10 01:25:12;;;;;;;13.73;12.30;;;2.90;99.90;;;;;;6128477;23;20597;-96
2021/11/10 01:27:39;;;;;;;15.77;11.90;;;3.30;99.90;;;;;;6131545;23;20590;-94
2021/11/10 01:30:10;;;;;;;12.17;10.93;;;2.20;99.90;;;;;;6127777;23;20630;-93
2021/11/10 01:32:38;;;;;;;19.20;12.37;;;2.10;99.90;;;;;;6129641;23;20590;-95
2021/11/10 01:35:07;;;;;;;14.50;12.93;;;3.90;99.90;;;;;;6127991;23;20586;-94
2021/11/10 01:37:40;;;;;;;17.83;12.80;;;2.30;99.90;;;;;;6131836;23;20585;-96
2021/11/10 01:40:12;;;;;;;13.40;12.10;;;3.30;99.90;;;;;;6129652;23;20619;-94
2021/11/10 01:42:42;;;;;;;13.43;11.97;;;2.10;99.90;;;;;;6131337;23;20584;-96
2021/11/10 01:45:10;;;;;;;12.33;11.13;;;2.30;99.90;;;;;;6131275;23;21137;-95
2021/11/10 01:47:40;;;;;;;14.13;12.03;;;2.40;99.90;;;;;;6135269;23;20976;-95
2021/11/10 01:50:11;;;;;;;14.13;12.70;;;2.40;99.90;;;;;;6136110;23;20633;-96
2021/11/10 01:52:41;;;;;;;12.80;11.53;;;2.30;99.90;;;;;;6136575;23;20644;-96
2021/11/10 02:15:47;;;;;;;12.97;11.70;;;1.40;99.90;;;;;;6102228;23;20624;-96
2021/11/10 02:18:21;;;;;;;14.70;13.20;;;2.80;99.90;;;;;;6160685;23;20675;-95
2021/11/10 02:20:52;;;;;;;14.13;12.73;;;1.90;99.90;;;;;;6160381;23;20631;-96
2021/11/10 02:23:22;;;;;;;17.53;14.73;;;2.00;99.90;;;;;;6161006;23;20905;-95
2021/11/10 02:25:56;;;;;;;15.93;13.07;;;1.80;99.90;;;;;;6160266;23;20643;-96
2021/11/10 02:28:24;;;;;;;14.23;12.83;;;1.90;99.90;;;;;;6159208;23;20587;-95
2021/11/10 02:31:00;;;;;;;14.37;12.97;;;3.00;99.90;;;;;;6161521;23;20631;-96
2021/11/10 02:33:28;;;;;;;14.30;12.80;;;1.90;99.90;;;;;;6163778;23;20581;-96
2021/11/10 02:36:06;;;;;;;13.67;12.37;;;1.80;99.90;;;;;;6163084;23;20592;-96
2021/11/10 02:38:33;;;;;;;13.63;12.33;;;2.00;99.90;;;;;;6160307;23;20588;-95
2021/11/10 02:41:02;;;;;;;15.20;12.70;;;3.50;99.90;;;;;;6162010;23;20608;-95
2021/11/10 02:43:38;;;;;;;14.20;12.70;;;1.80;99.90;;;;;;6168207;23;20584;-96
2021/11/10 02:46:11;;;;;;;16.90;13.97;;;2.80;99.90;;;;;;6167065;23;20619;-96
2021/11/10 02:48:44;;;;;;;14.47;13.00;;;2.70;99.90;;;;;;6169873;23;20624;-96
2021/11/10 02:51:15;;;;;;;19.33;13.40;;;1.30;99.90;;;;;;6163757;23;20627;-95
2021/11/10 02:53:43;;;;;;;16.77;15.10;;;2.40;99.90;;;;;;6162189;23;20641;-96
2021/11/10 02:56:11;;;;;;;18.03;13.50;;;1.80;99.90;;;;;;6164969;23;20968;-94
2021/11/10 02:58:39;;;;;;;14.43;13.03;;;2.00;99.90;;;;;;6163149;23;20591;-96
2021/11/10 03:01:07;;;;;;;16.50;13.97;;;1.50;99.90;;;;;;6167333;23;20993;-96
2021/11/10 03:04:21;;;;;;;16.33;14.50;;;2.70;99.90;;;;;;6165456;23;20642;-96
2021/11/10 03:06:52;;;;;;;14.47;13.07;;;2.00;99.90;;;;;;6163274;23;20658;-95
2021/11/10 03:09:28;;;;;;;17.70;13.40;;;1.50;99.90;;;;;;6107659;23;20667;-96
2021/11/10 03:11:58;;;;;;;18.97;13.70;;;2.00;99.90;;;;;;6133417;23;20629;-96
2021/11/10 03:14:35;;;;;;;14.83;13.33;;;1.70;99.90;;;;;;6134665;23;20610;-96
2021/11/10 03:17:07;;;;;;;15.80;14.20;;;1.70;99.90;;;;;;6133643;23;20687;-95
2021/11/10 03:19:34;;;;;;;16.97;14.87;;;1.60;99.90;;;;;;6135796;23;20613;-96
2021/11/10 03:24:46;;;;;;;14.30;13.00;;;1.40;99.90;;;;;;6143507;23;20584;-95
2021/11/10 03:27:20;;;;;;;14.10;12.70;;;1.30;99.90;;;;;;6148115;23;20577;-96
2021/11/10 03:32:32;;;;;;;15.77;12.77;;;1.60;99.90;;;;;;6136259;23;20614;-96
2021/11/10 03:35:06;;;;;;;15.53;13.43;;;1.60;99.90;;;;;;6137063;23;20597;-96
2021/11/10 03:37:37;;;;;;;14.83;13.13;;;0.70;99.90;;;;;;6111807;23;20586;-95
2021/11/10 03:40:19;;;;;;;15.50;12.27;;;1.80;99.90;;;;;;6136893;23;20904;-95
2021/11/10 03:42:46;;;;;;;14.53;13.03;;;2.30;99.90;;;;;;6137700;23;20577;-94
2021/11/10 03:45:15;;;;;;;15.23;12.70;;;1.50;99.90;;;;;;6138569;23;20593;-96
2021/11/10 03:47:45;;;;;;;15.93;14.33;;;1.40;99.90;;;;;;6138748;23;21009;-96
2021/11/10 03:50:13;;;;;;;16.87;14.73;;;1.40;99.90;;;;;;6145588;23;20593;-95
2021/11/10 03:53:02;;;;;;;15.90;14.20;;;1.40;99.90;;;;;;6141438;23;20602;-96
2021/11/10 03:55:37;;;;;;;14.20;12.70;;;1.60;99.90;;;;;;6149998;23;20581;-95
2021/11/10 03:58:05;;;;;;;16.00;14.30;;;1.70;99.90;;;;;;6152258;23;20624;-95
2021/11/10 04:00:34;;;;;;;17.03;14.43;;;1.60;99.90;;;;;;6148522;23;20597;-95
2021/11/10 04:03:19;;;;;;;15.33;13.70;;;1.40;99.90;;;;;;6141328;23;20585;-96
2021/11/10 04:05:46;;;;;;;21.00;15.27;;;1.40;99.90;;;;;;6142130;23;20569;-95
2021/11/10 04:08:15;;;;;;;19.27;14.30;;;1.40;99.90;;;;;;6133086;23;20645;-94
2021/11/10 04:10:48;;;;;;;16.00;14.37;;;1.40;99.90;;;;;;6130976;23;20632;-95
2021/11/10 04:13:18;;;;;;;15.67;13.93;;;1.50;99.90;;;;;;6133041;23;20578;-94
2021/11/10 04:15:46;;;;;;;15.20;13.60;;;1.30;99.90;;;;;;6129513;23;20637;-95
2021/11/10 04:18:13;;;;;;;16.53;14.83;;;1.50;99.90;;;;;;6131104;23;20646;-96
2021/11/10 04:20:47;;;;;;;14.40;12.87;;;1.50;99.90;;;;;;6132018;23;20574;-95
2021/11/10 04:23:18;;;;;;;16.20;13.77;;;1.40;99.90;;;;;;6131078;23;20575;-95
2021/11/10 04:25:45;;;;;;;16.57;14.87;;;1.30;99.90;;;;;;6132863;23;20613;-95
2021/11/10 04:28:14;;;;;;;15.90;13.77;;;1.30;99.90;;;;;;6132718;23;20709;-93
2021/11/10 04:30:58;;;;;;;15.87;14.27;;;1.30;99.90;;;;;;6132817;23;20675;-96
2021/11/10 04:33:25;;;;;;;15.73;14.27;;;1.40;99.90;;;;;;6134045;23;20589;-96
2021/11/10 04:35:53;;;;;;;15.50;14.00;;;1.30;99.90;;;;;;6135079;23;20593;-94
2021/11/10 04:38:27;;;;;;;15.40;13.77;;;1.30;99.90;;;;;;6135098;23;20613;-96
2021/11/10 04:40:56;;;;;;;15.27;13.67;;;1.20;99.90;;;;;;6134609;23;20605;-95
2021/11/10 04:43:24;;;;;;;16.70;14.67;;;1.20;99.90;;;;;;6135642;23;20585;-96
2021/11/10 04:46:05;;;;;;;14.77;13.37;;;1.30;99.90;;;;;;6138674;23;20601;-95
2021/11/10 04:48:36;;;;;;;16.13;14.53;;;1.40;99.90;;;;;;6138635;23;20693;-95
2021/11/10 04:51:08;;;;;;;14.43;13.23;;;1.50;99.90;;;;;;6137146;23;21172;-95
2021/11/10 04:56:35;;;;;;;16.60;14.90;;;1.20;99.90;;;;;;6139820;23;20577;-96
2021/11/10 05:01:51;;;;;;;15.93;14.00;;;1.30;99.90;;;;;;6132458;23;20578;-96
2021/11/10 05:04:22;;;;;;;17.73;15.93;;;1.30;99.90;;;;;;6138091;23;20549;-96
2021/11/10 05:06:56;;;;;;;16.83;15.20;;;1.30;99.90;;;;;;6136939;23;20589;-95
2021/11/10 05:09:27;;;;;;;15.97;14.30;;;1.30;99.90;;;;;;6136316;23;20624;-95
2021/11/10 05:11:55;;;;;;;16.53;13.87;;;1.30;99.90;;;;;;6135817;23;20640;-96
2021/11/10 05:15:10;;;;;;;16.30;14.70;;;1.20;99.90;;;;;;6140696;23;20589;-96
2021/11/10 05:32:20;;;;;;;17.17;15.33;;;1.10;99.90;;;;;;6145596;23;20643;-95
2021/11/10 05:34:50;;;;;;;17.33;15.53;;;1.30;99.90;;;;;;6134011;23;20598;-95
2021/11/10 05:37:18;;;;;;;17.57;15.73;;;1.30;99.90;;;;;;6132265;23;20600;-94
2021/11/10 05:39:46;;;;;;;18.67;17.03;;;1.40;99.90;;;;;;6143866;23;20619;-96
2021/11/10 05:42:20;;;;;;;16.63;14.90;;;1.40;99.90;;;;;;6151097;23;20574;-96
2021/11/10 05:44:49;;;;;;;17.67;16.07;;;1.40;99.90;;;;;;6150596;23;20578;-96
2021/11/10 05:47:24;;;;;;;17.50;15.73;;;1.30;99.90;;;;;;6135410;23;20586;-96
2021/11/10 05:49:52;;;;;;;17.50;15.10;;;1.20;99.90;;;;;;6136841;23;20628;-96
2021/11/10 05:52:21;;;;;;;16.13;14.50;;;1.10;99.90;;;;;;6137446;23;20719;-93
2021/11/10 05:54:49;;;;;;;20.50;16.00;;;1.20;99.90;;;;;;6140503;23;20590;-95
2021/11/10 05:57:17;;;;;;;18.70;15.17;;;1.20;99.90;;;;;;6132903;23;20669;-95
2021/11/10 05:59:47;;;;;;;16.73;14.93;;;1.20;99.90;;;;;;6135158;23;20614;-95
2021/11/10 06:02:14;;;;;;;16.70;15.00;;;1.20;99.90;;;;;;6139238;23;20889;-95
2021/11/10 06:04:45;;;;;;;17.70;15.33;;;1.20;99.90;;;;;;6149197;23;20569;-95
2021/11/10 06:07:15;;;;;;;20.17;15.40;;;1.20;99.90;;;;;;6151600;23;20584;-95
2021/11/10 06:09:43;;;;;;;17.47;15.83;;;1.10;99.90;;;;;;6151400;23;20609;-96
2021/11/10 06:12:12;;;;;;;20.00;16.57;;;1.10;99.90;;;;;;6151849;23;20601;-95
2021/11/10 06:14:39;;;;;;;16.43;14.80;;;1.10;99.90;;;;;;6151325;23;20574;-95
2021/11/10 06:17:07;;;;;;;17.10;15.50;;;1.10;99.90;;;;;;6150725;23;20600;-95
2021/11/10 06:19:34;;;;;;;19.47;16.57;;;1.20;99.90;;;;;;6147157;23;20661;-95
2021/11/10 06:22:10;;;;;;;16.47;14.90;;;1.20;99.90;;;;;;6142605;23;20562;-95
2021/11/10 06:24:41;;;;;;;17.47;15.77;;;1.20;99.90;;;;;;6139414;23;20604;-95
2021/11/10 06:27:09;;;;;;;18.10;16.30;;;1.20;99.90;;;;;;6137053;23;20584;-95
2021/11/10 06:29:36;;;;;;;18.37;15.60;;;1.10;99.90;;;;;;6137561;23;20739;-95
2021/11/10 06:32:05;;;;;;;15.93;14.33;;;1.10;99.90;;;;;;6138785;23;20653;-95
2021/11/10 06:34:32;;;;;;;17.10;15.50;;;1.10;99.90;;;;;;6139105;23;20609;-94
2021/11/10 06:37:00;;;;;;;18.27;16.20;;;1.00;99.90;;;;;;6145500;23;20581;-94
2021/11/10 06:39:42;;;;;;;18.67;16.83;;;1.20;99.90;;;;;;6136269;23;20620;-95
2021/11/10 06:42:11;;;;;;;18.77;16.93;;;1.20;99.90;;;;;;6135012;23;20574;-95
2021/11/10 06:44:40;;;;;;;17.80;16.00;;;1.30;99.90;;;;;;6131961;23;20616;-95
2021/11/10 06:47:07;;;;;;;22.40;17.10;;;1.20;99.90;;;;;;6132200;23;20590;-94
2021/11/10 06:49:41;;;;;;;17.77;16.07;;;1.20;99.90;;;;;;6136657;23;20675;-95
2021/11/10 06:52:11;;;;;;;16.97;15.17;;;1.20;99.90;;;;;;6137197;23;20629;-95
2021/11/10 06:54:40;;;;;;;17.07;15.47;;;1.20;99.90;;;;;;6135734;23;20590;-95
2021/11/10 06:57:08;;;;;;;16.10;14.60;;;1.30;99.90;;;;;;6133279;23;20990;-96
2021/11/10 06:59:42;;;;;;;18.10;16.30;;;1.30;99.90;;;;;;6133281;23;20963;-95
2021/11/10 07:02:10;;;;;;;15.90;14.37;;;1.40;99.90;;;;;;6132171;23;20601;-95
2021/11/10 07:04:38;;;;;;;16.77;15.20;;;1.40;99.90;;;;;;6130987;23;20650;-96
2021/11/10 07:07:14;;;;;;;17.17;15.37;;;1.50;99.90;;;;;;6132024;23;20612;-96
2021/11/10 07:09:45;;;;;;;15.47;14.07;;;1.50;99.90;;;;;;6132154;23;20967;-95
2021/11/10 07:12:16;;;;;;;17.23;14.43;;;1.50;99.90;;;;;;6136170;23;21185;-96
2021/11/10 07:14:43;;;;;;;17.20;15.50;;;1.50;99.90;;;;;;6134987;23;21223;-95
2021/11/10 07:17:10;;;;;;;18.13;15.93;;;1.50;99.90;;;;;;6137082;23;20601;-96
2021/11/10 07:19:39;;;;;;;20.17;16.90;;;1.60;99.90;;;;;;6136261;23;20621;-96
2021/11/10 07:22:08;;;;;;;20.53;16.30;;;1.80;99.90;;;;;;6137646;23;20601;-95
2021/11/10 07:24:37;;;;;;;20.33;16.63;;;1.90;99.90;;;;;;6138835;23;20617;-96
2021/11/10 07:27:21;;;;;;;19.63;17.83;;;2.00;99.90;;;;;;6137825;23;20615;-96
2021/11/10 07:29:53;;;;;;;18.77;16.87;;;2.30;99.90;;;;;;6138745;23;20602;-96
2021/11/10 08:19:08;;;;;;;19.47;17.53;;;3.70;99.90;;;;;;6117037;23;20643;-96
2021/11/10 08:56:21;;;;;;;18.60;16.63;;;4.30;99.90;;;;;;6175636;23;20607;-95
2021/11/10 09:27:19;;;;;;;19.23;17.50;;;4.90;99.90;;;;;;6095047;23;20957;-94
2021/11/10 09:29:47;;;;;;;20.57;17.20;;;5.10;99.90;;;;;;6129236;23;20662;-95
2021/11/10 09:32:16;;;;;;;20.00;18.00;;;5.20;99.90;;;;;;6129114;23;20648;-96
2021/11/10 09:34:55;;;;;;;19.97;18.07;;;5.20;99.90;;;;;;6133211;23;20576;-96
2021/11/10 09:37:25;;;;;;;18.57;16.87;;;5.20;99.90;;;;;;6132236;23;20580;-96
2021/11/10 09:39:58;;;;;;;18.87;17.10;;;5.30;99.90;;;;;;6132161;23;20623;-96
2021/11/10 09:42:39;;;;;;;17.33;15.83;;;5.40;99.90;;;;;;6136179;23;20570;-96
2021/11/10 10:46:00;;;;;;;17.97;16.23;;;6.30;99.90;;;;;;6168941;23;20602;-95
2021/11/10 10:48:36;;;;;;;19.40;17.30;;;6.70;99.90;;;;;;6163024;23;20572;-95
2021/11/10 10:51:07;;;;;;;19.63;17.93;;;6.70;99.90;;;;;;6136478;23;20675;-95
2021/11/10 10:54:09;;;;;;;18.10;16.00;;;6.60;99.90;;;;;;6162871;23;21139;-95
2021/11/10 10:56:43;;;;;;;18.17;16.30;;;6.70;99.90;;;;;;6162860;23;20611;-95
2021/11/10 10:59:18;;;;;;;19.50;17.60;;;6.90;99.90;;;;;;6149025;23;20643;-95
2021/11/10 11:46:50;;;;;;;18.70;16.90;;;9.10;99.90;;;;;;6140696;23;20585;-96
2021/11/10 15:51:17;;;;;;;13.57;12.20;;;8.30;99.90;;;;;;6238101;23;20611;-96
2021/11/10 16:08:16;;;;;;;14.90;13.33;;;7.40;99.90;;;;;;6229702;23;20590;-95
2021/11/10 16:16:53;;;;;;;15.83;14.43;;;7.10;99.90;;;;;;6224786;23;20594;-94
2021/11/10 16:40:46;;;;;;;20.67;18.77;;;6.20;99.90;;;;;;6225233;23;20648;-95
2021/11/10 16:48:43;;;;;;;18.53;16.87;;;6.00;99.90;;;;;;6203762;23;21102;-95
2021/11/10 16:51:23;;;;;;;20.33;17.93;;;6.00;99.90;;;;;;6226970;23;20642;-95
2021/11/10 16:53:55;;;;;;;21.20;16.30;;;5.90;99.90;;;;;;6201158;23;20590;-96
2021/11/10 16:59:14;;;;;;;18.80;16.97;;;5.70;99.90;;;;;;6222280;23;20595;-95
2021/11/10 17:01:44;;;;;;;20.10;18.30;;;5.70;99.90;;;;;;6221129;23;21087;-95
2021/11/10 17:04:15;;;;;;;22.10;19.80;;;5.70;99.90;;;;;;6221319;23;20962;-96
2021/11/10 17:09:33;;;;;;;29.57;26.73;;;5.70;99.90;;;;;;6221623;23;20670;-96
2021/11/10 17:12:07;;;;;;;25.80;23.60;;;5.60;99.90;;;;;;6224310;23;20603;-96
2021/11/10 17:14:42;;;;;;;26.33;23.83;;;5.60;99.90;;;;;;6227143;23;20609;-94
2021/11/10 17:17:11;;;;;;;28.73;26.13;;;5.50;99.90;;;;;;6224412;23;20577;-94
2021/11/10 17:19:39;;;;;;;48.20;43.20;;;5.50;99.90;;;;;;6224071;23;20645;-94
2021/11/10 17:44:02;;;;;;;28.57;26.10;;;5.20;99.90;;;;;;6238308;23;20671;-96
2021/11/10 19:27:37;;;;;;;29.70;26.87;;;4.30;99.90;;;;;;6143667;23;20617;-96
2021/11/10 22:39:57;;;;;;;32.00;29.10;;;3.00;99.90;;;;;;6232810;23;20681;-96
2021/11/10 22:53:46;;;;;;;31.27;28.37;;;3.00;99.90;;;;;;6231060;23;20580;-96
2021/11/10 23:02:33;;;;;;;28.57;26.27;;;2.70;99.90;;;;;;6209710;23;20574;-95
2021/11/10 23:10:40;;;;;;;28.83;26.00;;;3.00;99.90;;;;;;6205532;23;20602;-96
2021/11/10 23:13:26;;;;;;;30.40;27.67;;;2.80;99.90;;;;;;6208728;23;20671;-95
2021/11/10 23:16:02;;;;;;;29.37;25.70;;;2.80;99.90;;;;;;6209537;23;20561;-96
2021/11/10 23:18:39;;;;;;;27.17;24.40;;;2.70;99.90;;;;;;6211930;23;20574;-94
2021/11/10 23:30:18;;;;;;;30.77;27.97;;;2.60;99.90;;;;;;6209427;23;20621;-95
2021/11/10 23:32:51;;;;;;;31.87;28.73;;;2.60;99.90;;;;;;6208339;23;20617;-94
2021/11/10 23:35:25;;;;;;;26.40;23.53;;;2.70;99.90;;;;;;6211945;23;20662;-95
2021/11/10 23:37:57;;;;;;;34.17;31.07;;;2.70;99.90;;;;;;6212181;23;20583;-96
2021/11/10 23:40:36;;;;;;;31.40;28.53;;;2.70;99.90;;;;;;6211443;23;20677;-94
2021/11/10 23:43:14;;;;;;;27.23;24.30;;;2.60;99.90;;;;;;6210804;23;20582;-94
2021/11/10 23:48:43;;;;;;;32.20;29.00;;;2.60;99.90;;;;;;6209032;23;20577;-94
2021/11/10 23:51:10;;;;;;;28.70;25.60;;;2.50;99.90;;;;;;6206841;23;20632;-94
2021/11/10 23:53:41;;;;;;;26.27;22.87;;;2.50;99.90;;;;;;6208531;23;20586;-96
2021/11/10 23:58:53;;;;;;;25.93;23.27;;;2.40;99.90;;;;;;6194454;23;20569;-94
